createdAt,value
2023-01-05T00:01:36.065Z,97217.72
2023-01-05T00:04:05.193Z,97219.72
2023-01-05T00:06:33.118Z,97212.94
2023-01-05T00:09:01.048Z,97219.03
2023-01-05T00:11:46.814Z,97214.25
2023-01-05T00:14:34.719Z,97215.59
2023-01-05T00:17:20.141Z,97219.72
2023-01-05T00:20:05.530Z,97228.75
2023-01-05T00:22:34.991Z,97224.31
2023-01-05T00:25:11.760Z,97215.91
2023-01-05T00:27:41.105Z,97211.94
2023-01-05T00:30:11.537Z,97208.00
2023-01-05T00:32:39.592Z,97216.41
2023-01-05T00:35:08.023Z,97193.16
2023-01-05T00:37:38.173Z,97188.56
2023-01-05T00:40:07.036Z,97178.31
2023-01-05T00:42:34.821Z,97172.72
2023-01-05T00:45:02.519Z,97174.38
2023-01-05T00:47:31.541Z,97180.28
2023-01-05T00:49:59.312Z,97187.41
2023-01-05T00:52:27.087Z,97184.59
2023-01-05T00:54:54.897Z,97192.03
2023-01-05T00:57:22.638Z,97187.56
2023-01-05T00:59:50.341Z,97194.16
2023-01-05T01:02:18.160Z,97178.81
2023-01-05T01:04:47.101Z,97180.66
2023-01-05T01:07:14.729Z,97191.84
2023-01-05T01:09:42.353Z,97189.88
2023-01-05T01:12:09.984Z,97187.09
2023-01-05T01:14:38.173Z,97182.63
2023-01-05T01:17:05.732Z,97178.66
2023-01-05T01:19:33.686Z,97171.41
2023-01-05T01:22:02.686Z,97176.19
2023-01-05T01:24:30.273Z,97179.16
2023-01-05T01:26:57.917Z,97182.97
2023-01-05T01:29:25.850Z,97178.16
2023-01-05T01:31:54.567Z,97175.34
2023-01-05T01:34:23.297Z,97174.69
2023-01-05T01:36:51.046Z,97176.19
2023-01-05T01:39:19.947Z,97182.97
2023-01-05T01:41:47.468Z,97164.97
2023-01-05T01:44:49.318Z,97165.97
2023-01-05T01:47:21.301Z,97156.75
2023-01-05T01:49:49.264Z,97161.69
2023-01-05T01:52:17.003Z,97164.81
2023-01-05T01:54:46.505Z,97161.03
2023-01-05T01:57:14.401Z,97157.72
2023-01-05T01:59:42.186Z,97149.66
2023-01-05T02:02:09.891Z,97141.41
2023-01-05T02:04:38.832Z,97139.78
2023-01-05T02:07:08.494Z,97130.69
2023-01-05T02:09:36.108Z,97145.38
2023-01-05T02:12:12.396Z,97135.47
2023-01-05T02:14:45.593Z,97141.59
2023-01-05T02:17:19.247Z,97142.41
2023-01-05T02:20:24.164Z,97145.38
2023-01-05T02:23:06.203Z,97138.97
2023-01-05T02:25:59.951Z,97139.63
2023-01-05T02:28:44.480Z,97137.63
2023-01-05T02:31:17.108Z,97131.53
2023-01-05T02:33:57.062Z,97131.06
2023-01-05T02:36:28.948Z,97116.38
2023-01-05T02:39:00.167Z,97110.63
2023-01-05T02:41:33.165Z,97109.13
2023-01-05T02:44:01.806Z,97120.00
2023-01-05T02:46:31.448Z,97107.00
2023-01-05T02:49:00.547Z,97118.53
2023-01-05T02:51:32.759Z,97124.94
2023-01-05T02:54:03.579Z,97120.66
2023-01-05T02:56:35.425Z,97117.22
2023-01-05T02:59:08.240Z,97118.22
2023-01-05T03:01:40.022Z,97113.41
2023-01-05T03:04:09.877Z,97117.69
2023-01-05T03:06:46.950Z,97117.19
2023-01-05T03:09:16.069Z,97109.13
2023-01-05T03:12:04.855Z,97111.13
2023-01-05T03:14:34.443Z,97098.75
2023-01-05T03:17:07.263Z,97097.94
2023-01-05T03:19:39.733Z,97094.47
2023-01-05T03:22:30.624Z,97089.69
2023-01-05T03:25:16.065Z,97089.84
2023-01-05T03:28:01.967Z,97087.72
2023-01-05T03:30:54.105Z,97085.09
2023-01-05T03:33:54.475Z,97076.03
2023-01-05T03:36:24.701Z,97081.63
2023-01-05T03:38:52.655Z,97088.72
2023-01-05T03:41:21.033Z,97078.84
2023-01-05T03:43:49.266Z,97087.72
2023-01-05T03:46:19.083Z,97088.72
2023-01-05T03:48:48.397Z,97080.97
2023-01-05T03:51:16.976Z,97085.75
2023-01-05T03:53:44.859Z,97082.63
2023-01-05T03:56:12.700Z,97067.28
2023-01-05T03:58:40.248Z,97064.00
2023-01-05T04:01:08.629Z,97062.03
2023-01-05T04:03:37.148Z,97064.16
2023-01-05T04:06:06.479Z,97064.00
2023-01-05T04:08:34.089Z,97046.53
2023-01-05T04:11:12.384Z,97039.28
2023-01-05T04:13:39.961Z,97053.59
2023-01-05T04:16:08.249Z,97042.38
2023-01-05T04:18:35.948Z,97041.84
2023-01-05T04:21:03.724Z,97031.00
2023-01-05T04:23:32.742Z,97036.09
2023-01-05T04:26:00.435Z,97035.44
2023-01-05T04:28:28.027Z,97045.47
2023-01-05T04:30:56.584Z,97049.44
2023-01-05T04:33:25.300Z,97040.19
2023-01-05T04:35:53.243Z,97045.13
2023-01-05T04:38:21.344Z,97045.13
2023-01-05T04:40:51.415Z,97046.91
2023-01-05T04:43:20.028Z,97047.41
2023-01-05T04:45:48.789Z,97040.78
2023-01-05T04:48:17.068Z,97044.22
2023-01-05T04:50:44.823Z,97031.97
2023-01-05T04:53:12.642Z,97040.50
2023-01-05T04:55:40.407Z,97038.50
2023-01-05T04:58:12.022Z,97033.28
2023-01-05T05:00:40.272Z,97036.41
2023-01-05T05:03:08.291Z,97037.81
2023-01-05T05:05:36.066Z,97045.97
2023-01-05T05:08:03.838Z,97041.34
2023-01-05T05:10:31.556Z,97060.50
2023-01-05T05:12:59.303Z,97050.91
2023-01-05T05:15:28.317Z,97060.31
2023-01-05T05:17:56.012Z,97056.69
2023-01-05T05:20:23.950Z,97057.72
2023-01-05T05:22:51.590Z,97053.44
2023-01-05T05:25:19.314Z,97053.47
2023-01-05T05:27:47.042Z,97054.13
2023-01-05T05:30:15.025Z,97059.94
2023-01-05T05:32:44.704Z,97048.72
2023-01-05T05:35:12.562Z,97059.25
2023-01-05T05:37:40.132Z,97048.69
2023-01-05T05:40:09.040Z,97055.47
2023-01-05T05:42:36.714Z,97064.38
2023-01-05T05:45:04.946Z,97070.94
2023-01-05T05:47:32.713Z,97066.63
2023-01-05T05:50:01.719Z,97080.28
2023-01-05T05:52:29.400Z,97077.81
2023-01-05T05:54:56.995Z,97082.94
2023-01-05T05:57:24.550Z,97072.25
2023-01-05T05:59:52.103Z,97079.19
2023-01-05T06:02:19.774Z,97081.84
2023-01-05T06:04:47.444Z,97079.72
2023-01-05T06:07:16.601Z,97100.53
2023-01-05T06:09:44.340Z,97096.91
2023-01-05T06:12:12.076Z,97105.47
2023-01-05T06:14:39.964Z,97111.06
2023-01-05T06:17:07.640Z,97112.88
2023-01-05T06:19:35.393Z,97128.38
2023-01-05T06:22:03.101Z,97120.97
2023-01-05T06:24:31.938Z,97126.91
2023-01-05T06:26:59.455Z,97134.78
2023-01-05T06:29:27.005Z,97108.44
2023-01-05T06:31:54.570Z,97130.34
2023-01-05T06:34:22.202Z,97146.00
2023-01-05T06:36:49.730Z,97152.44
2023-01-05T06:39:17.586Z,97154.41
2023-01-05T06:41:46.790Z,97151.44
2023-01-05T06:44:14.356Z,97161.34
2023-01-05T06:46:42.070Z,97163.00
2023-01-05T06:49:12.505Z,97167.13
2023-01-05T06:51:40.409Z,97164.16
2023-01-05T06:54:08.027Z,97169.44
2023-01-05T06:56:37.147Z,97173.22
2023-01-05T06:59:06.066Z,97168.28
2023-01-05T07:01:33.704Z,97179.66
2023-01-05T07:04:01.384Z,97168.44
2023-01-05T07:06:29.149Z,97189.19
2023-01-05T07:08:56.857Z,97175.88
2023-01-05T07:11:24.471Z,97191.50
2023-01-05T07:13:52.158Z,97189.22
2023-01-05T07:16:21.148Z,97201.59
2023-01-05T07:18:48.875Z,97201.41
2023-01-05T07:21:16.539Z,97210.13
2023-01-05T07:23:44.147Z,97217.22
2023-01-05T07:26:11.896Z,97221.34
2023-01-05T07:28:39.585Z,97202.72
2023-01-05T07:31:08.278Z,97215.56
2023-01-05T07:33:40.338Z,97219.03
2023-01-05T07:36:09.180Z,97201.75
2023-01-05T07:38:36.736Z,97212.63
2023-01-05T07:41:04.511Z,97225.47
2023-01-05T07:43:32.147Z,97222.16
2023-01-05T07:46:01.921Z,97224.16
2023-01-05T07:48:29.604Z,97227.91
2023-01-05T07:51:02.552Z,97228.44
2023-01-05T07:53:30.583Z,97230.91
2023-01-05T07:55:59.132Z,97247.88
2023-01-05T07:58:27.355Z,97244.44
2023-01-05T08:00:55.215Z,97243.78
2023-01-05T08:03:25.189Z,97249.72
2023-01-05T08:05:52.696Z,97260.91
2023-01-05T08:08:24.585Z,97250.69
2023-01-05T08:10:52.438Z,97259.09
2023-01-05T08:13:37.882Z,97257.78
2023-01-05T08:16:06.152Z,97242.94
2023-01-05T08:18:33.706Z,97244.09
2023-01-05T08:21:04.392Z,97246.75
2023-01-05T08:23:42.596Z,97265.88
2023-01-05T08:26:13.571Z,97272.59
2023-01-05T08:28:41.672Z,97273.94
2023-01-05T08:31:12.201Z,97275.28
2023-01-05T08:33:39.785Z,97270.31
2023-01-05T08:36:09.719Z,97266.38
2023-01-05T08:38:38.936Z,97270.66
2023-01-05T08:41:06.737Z,97277.25
2023-01-05T08:43:34.313Z,97267.34
2023-01-05T08:46:01.920Z,97269.16
2023-01-05T08:48:29.589Z,97274.09
2023-01-05T08:51:03.636Z,97275.09
2023-01-05T08:53:31.217Z,97275.28
2023-01-05T08:56:00.073Z,97281.34
2023-01-05T08:58:27.989Z,97281.03
2023-01-05T09:00:55.609Z,97281.19
2023-01-05T09:03:23.248Z,97283.69
2023-01-05T09:05:53.796Z,97288.31
2023-01-05T09:08:21.460Z,97286.47
2023-01-05T09:10:48.996Z,97281.38
2023-01-05T09:13:17.882Z,97288.97
2023-01-05T09:15:45.397Z,97294.06
2023-01-05T09:18:12.902Z,97300.81
2023-01-05T09:20:40.624Z,97310.41
2023-01-05T09:23:08.241Z,97311.22
2023-01-05T09:25:35.765Z,97312.88
2023-01-05T09:28:03.284Z,97315.16
2023-01-05T09:30:40.082Z,97328.53
2023-01-05T09:33:09.625Z,97326.72
2023-01-05T09:35:37.236Z,97336.28
2023-01-05T09:38:04.774Z,97336.28
2023-01-05T09:40:38.886Z,97342.41
2023-01-05T09:43:06.649Z,97347.66
2023-01-05T09:45:35.573Z,97331.19
2023-01-05T09:48:05.047Z,97339.75
2023-01-05T09:50:32.559Z,97348.34
2023-01-05T09:53:01.139Z,97337.59
2023-01-05T09:55:31.331Z,97343.53
2023-01-05T09:58:01.228Z,97326.22
2023-01-05T10:00:29.654Z,97336.13
2023-01-05T10:03:00.520Z,97326.75
2023-01-05T10:05:29.190Z,97342.38
2023-01-05T10:08:01.968Z,97327.88
2023-01-05T10:10:42.430Z,97329.69
2023-01-05T10:13:18.756Z,97335.78
2023-01-05T10:15:49.705Z,97326.06
2023-01-05T10:18:20.002Z,97333.81
2023-01-05T10:20:57.218Z,97332.66
2023-01-05T10:23:36.443Z,97321.25
2023-01-05T10:26:08.945Z,97328.19
2023-01-05T10:28:42.180Z,97322.59
2023-01-05T10:31:20.757Z,97321.13
2023-01-05T10:33:55.834Z,97323.25
2023-01-05T10:37:07.968Z,97320.94
2023-01-05T10:39:58.116Z,97315.34
2023-01-05T10:42:40.895Z,97329.34
2023-01-05T10:45:10.380Z,97316.16
2023-01-05T10:47:38.840Z,97321.41
2023-01-05T10:50:21.653Z,97318.31
2023-01-05T10:52:49.194Z,97318.44
2023-01-05T10:55:18.737Z,97332.84
2023-01-05T10:57:47.537Z,97326.69
2023-01-05T11:00:17.349Z,97331.97
2023-01-05T11:02:51.050Z,97322.44
2023-01-05T11:05:34.900Z,97336.28
2023-01-05T11:08:04.925Z,97326.03
2023-01-05T11:10:35.569Z,97328.00
2023-01-05T11:13:05.574Z,97335.31
2023-01-05T11:15:35.634Z,97332.00
2023-01-05T11:18:03.531Z,97327.22
2023-01-05T11:20:32.467Z,97338.25
2023-01-05T11:22:59.992Z,97331.81
2023-01-05T11:25:30.093Z,97334.78
2023-01-05T11:28:16.021Z,97309.03
2023-01-05T11:30:56.466Z,97328.50
2023-01-05T11:33:26.409Z,97333.13
2023-01-05T11:35:55.735Z,97331.16
2023-01-05T11:38:25.559Z,97330.19
2023-01-05T11:40:53.890Z,97331.00
2023-01-05T11:43:22.880Z,97329.06
2023-01-05T11:45:52.710Z,97325.56
2023-01-05T11:48:22.085Z,97338.91
2023-01-05T11:50:51.715Z,97343.53
2023-01-05T11:53:26.361Z,97336.47
2023-01-05T11:56:02.183Z,97346.69
2023-01-05T11:58:33.892Z,97355.91
2023-01-05T12:01:14.891Z,97343.22
2023-01-05T12:03:58.714Z,97355.59
2023-01-05T12:06:35.620Z,97349.31
2023-01-05T12:09:10.938Z,97344.69
2023-01-05T12:11:43.924Z,97349.97
2023-01-05T12:14:24.542Z,97344.53
2023-01-05T12:16:55.501Z,97342.56
2023-01-05T12:19:48.159Z,97348.00
2023-01-05T12:22:33.465Z,97354.44
2023-01-05T12:25:09.459Z,97347.50
2023-01-05T12:28:05.052Z,97346.84
2023-01-05T12:34:03.276Z,97355.09
2023-01-05T12:36:46.389Z,97352.28
2023-01-05T12:39:34.722Z,97354.75
2023-01-05T12:42:16.312Z,97366.28
2023-01-05T12:44:56.879Z,97372.94
2023-01-05T12:47:36.823Z,97361.06
2023-01-05T12:50:11.628Z,97370.28
2023-01-05T12:52:41.649Z,97369.28
2023-01-05T12:55:17.492Z,97370.63
2023-01-05T12:57:49.653Z,97380.34
2023-01-05T13:00:19.737Z,97372.41
2023-01-05T13:02:53.664Z,97386.41
2023-01-05T13:05:24.197Z,97383.13
2023-01-05T13:07:55.317Z,97384.75
2023-01-05T13:10:27.302Z,97387.41
2023-01-05T13:13:02.692Z,97381.97
2023-01-05T13:15:40.208Z,97376.19
2023-01-05T13:18:08.154Z,97378.50
2023-01-05T13:20:41.107Z,97389.22
2023-01-05T13:23:14.588Z,97365.97
2023-01-05T13:25:50.695Z,97380.34
2023-01-05T13:28:20.933Z,97375.19
2023-01-05T13:31:01.594Z,97366.09
2023-01-05T13:33:57.336Z,97375.13
2023-01-05T13:36:32.257Z,97370.00
2023-01-05T13:39:20.098Z,97367.19
2023-01-05T13:42:08.264Z,97370.13
2023-01-05T13:44:58.495Z,97369.16
2023-01-05T13:47:37.441Z,97362.69
2023-01-05T13:50:24.532Z,97375.22
2023-01-05T13:53:02.188Z,97364.19
2023-01-05T13:55:30.386Z,97367.19
2023-01-05T13:57:58.187Z,97370.19
2023-01-05T14:00:30.350Z,97377.13
2023-01-05T14:03:07.804Z,97382.22
2023-01-05T14:05:41.703Z,97382.03
2023-01-05T14:08:20.287Z,97380.38
2023-01-05T14:11:09.758Z,97379.19
2023-01-05T14:13:42.903Z,97390.28
2023-01-05T14:16:50.183Z,97398.19
2023-01-05T14:19:23.691Z,97397.09
2023-01-05T14:22:02.060Z,97404.03
2023-01-05T14:24:33.592Z,97414.91
2023-01-05T14:27:04.537Z,97395.75
2023-01-05T14:30:09.158Z,97406.66
2023-01-05T14:32:39.857Z,97416.06
2023-01-05T14:35:18.861Z,97418.84
2023-01-05T14:37:53.324Z,97427.91
2023-01-05T14:40:26.377Z,97426.41
2023-01-05T14:42:53.922Z,97425.91
2023-01-05T14:45:23.669Z,97431.03
2023-01-05T14:47:55.462Z,97433.50
2023-01-05T14:50:33.280Z,97439.09
2023-01-05T14:53:03.847Z,97437.75
2023-01-05T14:55:38.822Z,97448.34
2023-01-05T14:58:12.705Z,97446.00
2023-01-05T15:00:45.222Z,97462.81
2023-01-05T15:03:24.111Z,97459.59
2023-01-05T15:05:57.721Z,97462.25
2023-01-05T15:08:50.495Z,97453.28
2023-01-05T15:11:49.573Z,97466.50
2023-01-05T15:14:34.660Z,97458.09
2023-01-05T15:17:17.854Z,97460.88
2023-01-05T15:19:59.197Z,97457.72
2023-01-05T15:22:39.446Z,97471.56
2023-01-05T15:25:25.445Z,97478.56
2023-01-05T15:28:02.301Z,97483.75
2023-01-05T15:30:59.090Z,97490.00
2023-01-05T15:33:33.690Z,97491.78
2023-01-05T15:36:05.228Z,97501.66
2023-01-05T15:38:44.517Z,97504.03
2023-01-05T15:41:14.004Z,97500.06
2023-01-05T15:43:42.591Z,97501.78
2023-01-05T15:46:10.597Z,97508.94
2023-01-05T15:48:41.246Z,97504.25
2023-01-05T15:51:12.606Z,97509.25
2023-01-05T15:53:42.314Z,97509.75
2023-01-05T15:56:26.663Z,97485.00
2023-01-05T15:58:54.222Z,97501.53
2023-01-05T16:01:21.839Z,97505.69
2023-01-05T16:03:50.077Z,97499.28
2023-01-05T16:06:21.314Z,97505.69
2023-01-05T16:08:50.706Z,97512.97
2023-01-05T16:11:22.488Z,97504.91
2023-01-05T16:13:52.358Z,97514.13
2023-01-05T16:16:50.541Z,97518.56
2023-01-05T16:19:18.864Z,97521.56
2023-01-05T16:21:50.163Z,97529.16
2023-01-05T16:24:22.871Z,97517.44
2023-01-05T16:26:51.569Z,97518.41
2023-01-05T16:29:33.017Z,97526.81
2023-01-05T16:32:01.415Z,97511.50
2023-01-05T16:34:31.373Z,97527.31
2023-01-05T16:37:08.377Z,97521.97
2023-01-05T16:39:40.534Z,97526.56
2023-01-05T16:42:40.213Z,97538.41
2023-01-05T16:45:10.068Z,97542.09
2023-01-05T16:47:39.339Z,97527.78
2023-01-05T16:50:51.069Z,97539.97
2023-01-05T16:53:20.934Z,97550.63
2023-01-05T16:55:48.525Z,97546.72
2023-01-05T16:58:37.673Z,97551.31
2023-01-05T17:01:24.349Z,97561.19
2023-01-05T17:03:52.707Z,97558.72
2023-01-05T17:06:24.996Z,97566.06
2023-01-05T17:08:54.904Z,97568.41
2023-01-05T17:11:22.460Z,97552.78
2023-01-05T17:13:53.550Z,97567.59
2023-01-05T17:16:22.400Z,97565.25
2023-01-05T17:18:53.268Z,97567.72
2023-01-05T17:21:28.799Z,97569.91
2023-01-05T17:23:58.936Z,97565.16
2023-01-05T17:26:28.854Z,97562.81
2023-01-05T17:28:59.817Z,97566.81
2023-01-05T17:31:27.334Z,97567.09
2023-01-05T17:33:55.047Z,97564.69
2023-01-05T17:36:27.138Z,97573.41
2023-01-05T17:38:54.752Z,97574.94
2023-01-05T17:41:23.664Z,97580.66
2023-01-05T17:43:51.286Z,97577.81
2023-01-05T17:46:22.615Z,97582.41
2023-01-05T17:48:50.427Z,97574.66
2023-01-05T17:51:17.998Z,97576.59
2023-01-05T17:53:45.490Z,97573.00
2023-01-05T17:56:13.067Z,97573.44
2023-01-05T17:58:41.958Z,97578.50
2023-01-05T18:01:09.503Z,97588.66
2023-01-05T18:03:37.142Z,97595.91
2023-01-05T18:06:05.005Z,97598.97
2023-01-05T18:08:32.574Z,97589.84
2023-01-05T18:11:02.274Z,97581.75
2023-01-05T18:13:30.241Z,97574.56
2023-01-05T18:18:31.758Z,97599.00
2023-01-05T18:21:00.826Z,97591.28
2023-01-05T18:23:28.475Z,97596.97
2023-01-05T18:25:55.996Z,97589.06
2023-01-05T18:28:23.734Z,97587.56
2023-01-05T18:30:51.271Z,97599.91
2023-01-05T18:33:20.246Z,97611.41
2023-01-05T18:35:50.426Z,97612.38
2023-01-05T18:38:18.184Z,97615.44
2023-01-05T18:40:48.031Z,97613.94
2023-01-05T18:43:15.580Z,97620.69
2023-01-05T18:45:43.575Z,97614.03
2023-01-05T18:48:11.155Z,97619.69
2023-01-05T18:50:45.132Z,97623.72
2023-01-05T18:53:13.085Z,97622.53
2023-01-05T18:55:41.606Z,97622.31
2023-01-05T18:58:09.307Z,97617.63
2023-01-05T19:00:37.201Z,97626.84
2023-01-05T19:03:04.773Z,97625.75
2023-01-05T19:05:32.347Z,97626.03
2023-01-05T19:08:01.302Z,97626.03
2023-01-05T19:10:31.295Z,97633.47
2023-01-05T19:12:58.881Z,97631.31
2023-01-05T19:15:26.403Z,97638.94
2023-01-05T19:17:53.957Z,97637.69
2023-01-05T19:20:21.751Z,97637.59
2023-01-05T19:22:49.269Z,97634.84
2023-01-05T19:25:19.069Z,97646.34
2023-01-05T19:27:47.256Z,97645.50
2023-01-05T19:30:17.064Z,97652.13
2023-01-05T19:32:44.568Z,97650.06
2023-01-05T19:35:12.807Z,97650.75
2023-01-05T19:37:42.323Z,97654.91
2023-01-05T19:40:10.996Z,97652.84
2023-01-05T19:42:40.050Z,97662.13
2023-01-05T19:45:09.337Z,97659.78
2023-01-05T19:47:40.391Z,97658.94
2023-01-05T19:50:09.891Z,97647.09
2023-01-05T19:52:37.501Z,97652.09
2023-01-05T19:55:06.100Z,97651.69
2023-01-05T19:57:33.637Z,97663.31
2023-01-05T20:00:02.536Z,97656.13
2023-01-05T20:02:30.078Z,97663.03
2023-01-05T20:04:57.682Z,97668.81
2023-01-05T20:07:25.218Z,97667.16
2023-01-05T20:09:52.916Z,97673.81
2023-01-05T20:12:20.487Z,97673.66
2023-01-05T20:14:48.093Z,97677.09
2023-01-05T20:17:17.014Z,97685.63
2023-01-05T20:19:44.526Z,97679.94
2023-01-05T20:22:14.817Z,97680.59
2023-01-05T20:24:43.774Z,97687.50
2023-01-05T20:27:13.743Z,97674.94
2023-01-05T20:29:41.747Z,97685.44
2023-01-05T20:32:12.445Z,97693.47
2023-01-05T20:34:42.154Z,97696.13
2023-01-05T20:37:11.205Z,97697.56
2023-01-05T20:39:40.462Z,97704.47
2023-01-05T20:42:10.542Z,97707.25
2023-01-05T20:44:41.032Z,97706.03
2023-01-05T20:47:09.274Z,97699.09
2023-01-05T20:49:38.286Z,97705.75
2023-01-05T20:52:08.421Z,97700.66
2023-01-05T20:54:36.204Z,97702.19
2023-01-05T20:57:03.807Z,97704.25
2023-01-05T20:59:33.568Z,97686.41
2023-01-05T21:02:02.640Z,97697.34
2023-01-05T21:04:31.634Z,97696.22
2023-01-05T21:07:01.189Z,97705.22
2023-01-05T21:09:30.922Z,97686.41
2023-01-05T21:11:59.281Z,97709.22
2023-01-05T21:14:26.921Z,97704.13
2023-01-05T21:16:55.147Z,97708.25
2023-01-05T21:19:23.852Z,97693.06
2023-01-05T21:21:53.929Z,97705.34
2023-01-05T21:24:22.008Z,97705.09
2023-01-05T21:26:50.907Z,97702.88
2023-01-05T21:29:20.338Z,97690.69
2023-01-05T21:31:48.032Z,97704.53
2023-01-05T21:34:15.657Z,97703.81
2023-01-05T21:36:45.266Z,97693.84
2023-01-05T21:39:18.223Z,97701.84
2023-01-05T21:42:03.402Z,97705.31
2023-01-05T21:44:32.890Z,97692.25
2023-01-05T21:47:00.672Z,97707.16
2023-01-05T21:49:28.588Z,97714.75
2023-01-05T21:52:14.042Z,97698.13
2023-01-05T21:54:59.422Z,97705.50
2023-01-05T21:57:27.006Z,97699.53
2023-01-05T21:59:55.894Z,97713.38
2023-01-05T22:02:23.402Z,97713.22
2023-01-05T22:04:50.917Z,97713.66
2023-01-05T22:07:18.491Z,97707.78
2023-01-05T22:09:46.000Z,97711.56
2023-01-05T22:12:13.587Z,97707.41
2023-01-05T22:14:41.247Z,97702.69
2023-01-05T22:17:10.444Z,97695.66
2023-01-05T22:19:38.365Z,97688.47
2023-01-05T22:22:05.933Z,97698.56
2023-01-05T22:24:33.455Z,97703.72
2023-01-05T22:27:00.992Z,97710.19
2023-01-05T22:29:28.799Z,97717.41
2023-01-05T22:31:57.940Z,97709.09
2023-01-05T22:34:27.499Z,97696.94
2023-01-05T22:36:55.038Z,97707.00
2023-01-05T22:39:22.740Z,97698.16
2023-01-05T22:41:50.890Z,97694.44
2023-01-05T22:44:18.727Z,97697.75
2023-01-05T22:46:46.225Z,97697.06
2023-01-05T22:49:16.317Z,97700.94
2023-01-05T22:51:46.342Z,97695.41
2023-01-05T22:54:14.028Z,97694.53
2023-01-05T22:56:41.780Z,97694.97
2023-01-05T22:59:09.353Z,97696.22
2023-01-05T23:01:38.635Z,97696.75
2023-01-05T23:04:07.212Z,97703.66
2023-01-05T23:06:35.114Z,97702.81
2023-01-05T23:09:05.559Z,97704.72
2023-01-05T23:11:34.720Z,97700.59
2023-01-05T23:14:04.480Z,97706.81
2023-01-05T23:16:33.929Z,97704.31
2023-01-05T23:19:01.820Z,97704.59
2023-01-05T23:21:29.693Z,97701.84
2023-01-05T23:23:58.375Z,97692.03
2023-01-05T23:26:28.164Z,97696.56
2023-01-05T23:28:55.782Z,97694.03
2023-01-05T23:31:23.951Z,97700.94
2023-01-05T23:33:51.800Z,97705.13
2023-01-05T23:36:20.408Z,97698.75
2023-01-05T23:38:48.620Z,97702.53
2023-01-05T23:41:17.141Z,97696.31
2023-01-05T23:43:46.643Z,97694.22
2023-01-05T23:46:17.410Z,97699.31
2023-01-05T23:48:45.171Z,97690.06
2023-01-05T23:51:16.390Z,97684.94
2023-01-05T23:53:46.463Z,97682.50
2023-01-05T23:56:16.469Z,97687.28
2023-01-05T23:58:46.221Z,97674.44
